createdAt,value
2023-02-04T00:00:20.419Z,15.20
2023-02-04T00:02:47.615Z,23.55
2023-02-04T00:05:17.401Z,19.88
2023-02-04T00:07:44.258Z,20.85
2023-02-04T00:10:11.364Z,28.90
2023-02-04T00:12:38.376Z,17.08
2023-02-04T00:15:06.276Z,21.30
2023-02-04T00:17:33.272Z,15.23
2023-02-04T00:20:00.133Z,12.70
2023-02-04T00:22:28.944Z,20.73
2023-02-04T00:24:55.959Z,27.10
2023-02-04T00:27:22.906Z,18.40
2023-02-04T00:29:49.851Z,23.33
2023-02-04T00:32:16.797Z,17.23
2023-02-04T00:34:43.685Z,21.17
2023-02-04T00:37:10.473Z,13.63
2023-02-04T00:39:37.292Z,21.30
2023-02-04T00:42:05.736Z,20.15
2023-02-04T00:44:32.634Z,18.27
2023-02-04T00:46:59.596Z,18.05
2023-02-04T00:49:26.452Z,26.80
2023-02-04T00:51:53.253Z,20.05
2023-02-04T00:54:20.199Z,23.67
2023-02-04T00:56:47.136Z,22.08
2023-02-04T00:59:14.260Z,29.75
2023-02-04T01:01:41.207Z,11.07
2023-02-04T01:04:08.143Z,15.68
2023-02-04T01:06:35.407Z,21.95
2023-02-04T01:09:02.581Z,11.25
2023-02-04T01:11:30.982Z,21.52
2023-02-04T01:13:57.838Z,26.10
2023-02-04T01:16:24.906Z,14.13
2023-02-04T01:18:51.824Z,16.55
2023-02-04T01:21:18.669Z,19.83
2023-02-04T01:23:45.561Z,30.50
2023-02-04T01:26:12.394Z,18.27
2023-02-04T01:28:39.218Z,22.70
2023-02-04T01:31:06.183Z,19.83
2023-02-04T01:33:33.124Z,21.00
2023-02-04T01:35:59.955Z,7.85
2023-02-04T01:38:26.814Z,26.48
2023-02-04T01:40:53.991Z,17.67
2023-02-04T01:43:22.546Z,14.70
2023-02-04T01:45:50.592Z,12.70
2023-02-04T01:48:20.565Z,24.05
2023-02-04T01:50:52.104Z,11.65
2023-02-04T01:53:23.664Z,11.80
2023-02-04T01:55:51.226Z,17.05
2023-02-04T01:58:18.502Z,20.13
2023-02-04T02:00:45.643Z,18.30
2023-02-04T02:03:12.756Z,22.33
2023-02-04T02:05:46.455Z,13.57
2023-02-04T02:08:14.572Z,9.75
2023-02-04T02:10:43.600Z,17.25
2023-02-04T02:13:13.936Z,15.13
2023-02-04T02:15:40.959Z,13.30
2023-02-04T02:18:08.046Z,12.80
2023-02-04T02:20:35.192Z,23.02
2023-02-04T02:23:17.658Z,22.02
2023-02-04T02:25:45.200Z,10.30
2023-02-04T02:28:15.805Z,18.35
2023-02-04T02:30:45.704Z,12.73
2023-02-04T02:33:18.261Z,23.10
2023-02-04T02:35:48.352Z,18.88
2023-02-04T02:38:17.004Z,22.67
2023-02-04T02:40:44.552Z,14.98
2023-02-04T02:43:17.367Z,9.60
2023-02-04T02:45:44.821Z,13.20
2023-02-04T02:48:12.296Z,10.02
2023-02-04T02:50:39.919Z,14.02
2023-02-04T02:53:12.293Z,15.30
2023-02-04T02:55:39.771Z,10.77
2023-02-04T02:58:15.801Z,9.55
2023-02-04T03:00:42.733Z,14.85
2023-02-04T03:03:22.284Z,10.60
2023-02-04T03:05:53.731Z,14.27
2023-02-04T03:08:20.933Z,23.60
2023-02-04T03:10:48.174Z,12.75
2023-02-04T03:13:17.229Z,15.05
2023-02-04T03:15:46.662Z,17.75
2023-02-04T03:18:16.732Z,20.80
2023-02-04T03:20:43.944Z,20.05
2023-02-04T03:23:11.604Z,13.05
2023-02-04T03:25:39.491Z,18.23
2023-02-04T03:28:06.424Z,10.20
2023-02-04T03:30:33.507Z,12.13
2023-02-04T03:33:00.558Z,7.47
2023-02-04T03:35:27.468Z,13.80
2023-02-04T03:37:54.392Z,14.82
2023-02-04T03:40:21.177Z,20.38
2023-02-04T03:42:48.339Z,11.13
2023-02-04T03:45:15.227Z,12.05
2023-02-04T03:47:42.025Z,11.88
2023-02-04T03:50:11.042Z,25.63
2023-02-04T03:52:37.910Z,12.57
2023-02-04T03:55:04.910Z,18.52
2023-02-04T03:57:31.706Z,14.20
2023-02-04T03:59:58.493Z,9.63
2023-02-04T04:02:25.399Z,18.40
2023-02-04T04:04:52.234Z,28.52
2023-02-04T04:07:19.111Z,17.83
2023-02-04T04:09:45.906Z,14.73
2023-02-04T04:12:12.671Z,18.17
2023-02-04T04:14:39.463Z,12.70
2023-02-04T04:17:06.981Z,14.88
2023-02-04T04:19:33.828Z,13.45
2023-02-04T04:22:00.620Z,17.30
2023-02-04T04:24:27.472Z,9.63
2023-02-04T04:26:54.298Z,13.82
2023-02-04T04:29:21.112Z,11.63
2023-02-04T04:31:47.983Z,13.25
2023-02-04T04:34:14.856Z,10.75
2023-02-04T04:36:41.670Z,10.95
2023-02-04T04:39:08.471Z,18.10
2023-02-04T04:41:35.283Z,9.63
2023-02-04T04:44:02.098Z,13.38
2023-02-04T04:46:28.949Z,8.90
2023-02-04T04:48:55.737Z,12.65
2023-02-04T04:51:22.639Z,16.17
2023-02-04T04:53:49.564Z,10.10
2023-02-04T04:56:16.547Z,19.08
2023-02-04T04:58:43.387Z,11.05
2023-02-04T05:01:10.273Z,9.38
2023-02-04T05:03:37.285Z,17.27
2023-02-04T05:06:04.142Z,13.93
2023-02-04T05:08:31.006Z,14.90
2023-02-04T05:10:57.864Z,8.38
2023-02-04T05:13:25.376Z,15.85
2023-02-04T05:15:52.160Z,17.75
2023-02-04T05:18:19.067Z,11.27
2023-02-04T05:20:46.074Z,16.42
2023-02-04T05:23:13.125Z,6.68
2023-02-04T05:25:40.031Z,19.65
2023-02-04T05:28:06.990Z,16.08
2023-02-04T05:30:34.145Z,10.55
2023-02-04T05:33:01.247Z,20.52
2023-02-04T05:35:28.167Z,13.45
2023-02-04T05:37:54.937Z,16.48
2023-02-04T05:40:21.739Z,14.63
2023-02-04T05:42:48.557Z,8.55
2023-02-04T05:45:18.955Z,18.05
2023-02-04T05:47:46.204Z,16.52
2023-02-04T05:50:13.684Z,20.02
2023-02-04T05:52:41.051Z,4.40
2023-02-04T05:55:08.867Z,16.23
2023-02-04T05:57:35.743Z,12.98
2023-02-04T06:00:02.745Z,9.02
2023-02-04T06:02:29.611Z,13.35
2023-02-04T06:04:56.416Z,10.88
2023-02-04T06:07:23.262Z,11.20
2023-02-04T06:09:50.058Z,10.52
2023-02-04T06:12:16.813Z,17.25
2023-02-04T06:14:43.593Z,12.73
2023-02-04T06:17:10.405Z,8.82
2023-02-04T06:19:37.185Z,13.40
2023-02-04T06:22:04.030Z,11.75
2023-02-04T06:24:30.903Z,22.55
2023-02-04T06:26:57.753Z,11.07
2023-02-04T06:29:24.598Z,18.27
2023-02-04T06:31:51.625Z,7.10
2023-02-04T06:34:18.615Z,10.25
2023-02-04T06:36:45.394Z,13.05
2023-02-04T06:39:12.172Z,16.30
2023-02-04T06:41:38.994Z,11.18
2023-02-04T06:44:05.874Z,11.90
2023-02-04T06:46:33.651Z,8.02
2023-02-04T06:49:00.506Z,15.73
2023-02-04T06:51:27.753Z,6.50
2023-02-04T06:53:54.607Z,8.63
2023-02-04T06:56:21.475Z,6.95
2023-02-04T06:58:48.313Z,10.77
2023-02-04T07:01:15.168Z,9.23
2023-02-04T07:03:42.010Z,12.60
2023-02-04T07:06:08.879Z,4.63
2023-02-04T07:08:35.720Z,16.27
2023-02-04T07:11:02.563Z,9.25
2023-02-04T07:13:29.370Z,4.53
2023-02-04T07:15:56.224Z,6.05
2023-02-04T07:18:23.089Z,4.13
2023-02-04T07:20:49.927Z,11.38
2023-02-04T07:23:16.751Z,7.43
2023-02-04T07:25:44.228Z,4.32
2023-02-04T07:28:11.192Z,5.05
2023-02-04T07:30:38.216Z,4.90
2023-02-04T07:33:05.095Z,5.93
2023-02-04T07:35:31.936Z,1.27
2023-02-04T07:37:58.808Z,9.77
2023-02-04T07:40:25.664Z,1.48
2023-02-04T07:42:52.497Z,10.25
2023-02-04T07:45:19.334Z,1.95
2023-02-04T07:47:46.241Z,4.53
2023-02-04T07:50:13.422Z,3.17
2023-02-04T07:52:40.281Z,6.22
2023-02-04T07:55:07.510Z,12.68
2023-02-04T07:57:34.753Z,2.10
2023-02-04T08:00:01.736Z,10.55
2023-02-04T08:02:28.648Z,8.30
2023-02-04T08:04:55.595Z,5.30
2023-02-04T08:07:22.501Z,6.25
2023-02-04T08:09:49.354Z,4.85
2023-02-04T08:12:16.205Z,4.85
2023-02-04T08:14:43.289Z,2.58
2023-02-04T08:17:10.124Z,5.10
2023-02-04T08:19:36.929Z,17.48
2023-02-04T08:22:03.732Z,7.60
2023-02-04T08:24:30.538Z,8.07
2023-02-04T08:26:58.393Z,1.23
2023-02-04T08:29:28.019Z,7.78
2023-02-04T08:31:54.998Z,2.33
2023-02-04T08:34:21.935Z,3.03
2023-02-04T08:36:48.737Z,4.53
2023-02-04T08:39:15.583Z,1.77
2023-02-04T08:41:42.488Z,13.50
2023-02-04T08:44:09.306Z,5.25
2023-02-04T08:46:36.506Z,5.97
2023-02-04T08:49:03.525Z,5.55
2023-02-04T08:51:30.399Z,4.80
2023-02-04T08:53:57.213Z,5.00
2023-02-04T08:56:24.448Z,9.63
2023-02-04T08:58:52.995Z,5.55
2023-02-04T09:01:20.424Z,7.15
2023-02-04T09:03:47.681Z,13.50
2023-02-04T09:06:14.888Z,3.72
2023-02-04T09:08:41.703Z,18.20
2023-02-04T09:11:10.835Z,5.65
2023-02-04T09:13:38.023Z,9.20
2023-02-04T09:16:05.142Z,4.25
2023-02-04T09:18:32.749Z,10.23
2023-02-04T09:20:59.559Z,3.42
2023-02-04T09:23:30.176Z,2.30
2023-02-04T09:25:57.122Z,28.90
2023-02-04T09:28:23.954Z,6.88
2023-02-04T09:30:51.093Z,11.27
2023-02-04T09:33:18.129Z,5.18
2023-02-04T09:35:45.518Z,5.05
2023-02-04T09:38:12.528Z,5.35
2023-02-04T09:40:44.250Z,4.95
2023-02-04T09:43:17.634Z,9.80
2023-02-04T09:45:44.621Z,7.90
2023-02-04T09:48:14.661Z,2.25
2023-02-04T09:50:42.203Z,2.20
2023-02-04T09:53:15.932Z,3.78
2023-02-04T09:55:45.430Z,2.95
2023-02-04T09:58:20.847Z,0.95
2023-02-04T10:01:09.384Z,5.65
2023-02-04T10:03:36.274Z,3.90
2023-02-04T10:06:03.380Z,4.85
2023-02-04T10:08:33.322Z,4.13
2023-02-04T10:11:01.169Z,4.88
2023-02-04T10:13:34.861Z,4.65
2023-02-04T10:16:02.908Z,4.72
2023-02-04T10:18:33.404Z,2.53
2023-02-04T10:21:15.554Z,3.25
2023-02-04T10:23:44.382Z,5.45
2023-02-04T10:26:15.575Z,1.92
2023-02-04T10:28:42.775Z,2.30
2023-02-04T10:31:37.797Z,2.55
2023-02-04T10:36:33.186Z,6.22
2023-02-04T10:39:05.391Z,5.15
2023-02-04T10:41:33.491Z,5.40
2023-02-04T10:44:05.149Z,7.78
2023-02-04T10:46:33.420Z,3.17
2023-02-04T10:49:00.343Z,0.35
2023-02-04T10:51:27.267Z,6.93
2023-02-04T10:54:17.069Z,2.55
2023-02-04T10:56:46.217Z,1.35
2023-02-04T10:59:29.141Z,2.65
2023-02-04T11:01:57.791Z,5.90
2023-02-04T11:04:26.665Z,3.33
2023-02-04T11:06:54.310Z,3.70
2023-02-04T11:09:21.745Z,6.10
2023-02-04T11:11:50.566Z,4.20
2023-02-04T11:14:26.696Z,4.22
2023-02-04T11:16:54.772Z,4.82
2023-02-04T11:19:38.685Z,4.93
2023-02-04T11:22:22.807Z,2.03
2023-02-04T11:24:50.876Z,3.05
2023-02-04T11:27:36.499Z,3.35
2023-02-04T11:30:19.086Z,2.40
2023-02-04T11:33:05.915Z,5.55
2023-02-04T11:35:33.655Z,7.20
2023-02-04T11:38:00.772Z,3.63
2023-02-04T11:40:31.927Z,3.00
2023-02-04T11:43:08.865Z,3.40
2023-02-04T11:45:37.319Z,4.35
2023-02-04T11:48:18.527Z,7.07
2023-02-04T11:50:59.240Z,2.13
2023-02-04T11:53:31.168Z,9.65
2023-02-04T11:55:58.550Z,7.35
2023-02-04T11:58:26.138Z,7.50
2023-02-04T12:00:53.584Z,8.60
2023-02-04T12:03:34.308Z,1.55
2023-02-04T12:06:01.426Z,3.90
2023-02-04T12:08:36.485Z,11.18
2023-02-04T12:11:09.090Z,2.88
2023-02-04T12:13:50.997Z,1.42
2023-02-04T12:16:18.702Z,4.25
2023-02-04T12:18:45.709Z,3.53
2023-02-04T12:21:14.283Z,4.93
2023-02-04T12:23:42.515Z,4.78
2023-02-04T12:26:10.220Z,1.27
2023-02-04T12:28:37.297Z,3.00
2023-02-04T12:31:04.499Z,2.00
2023-02-04T12:33:31.411Z,2.22
2023-02-04T12:35:58.304Z,4.35
2023-02-04T12:38:25.157Z,2.17
2023-02-04T12:40:51.977Z,4.63
2023-02-04T12:43:18.874Z,8.52
2023-02-04T12:45:47.893Z,7.15
2023-02-04T12:48:15.053Z,2.40
2023-02-04T12:50:42.008Z,2.63
2023-02-04T12:53:09.006Z,2.72
2023-02-04T12:55:36.351Z,3.63
2023-02-04T12:58:03.519Z,8.68
2023-02-04T13:00:30.676Z,1.13
2023-02-04T13:02:59.172Z,0.63
2023-02-04T13:05:27.056Z,1.23
2023-02-04T13:07:54.497Z,1.42
2023-02-04T13:10:21.967Z,3.53
2023-02-04T13:12:48.929Z,7.60
2023-02-04T13:15:15.962Z,7.68
2023-02-04T13:17:43.074Z,1.60
2023-02-04T13:20:10.916Z,3.97
2023-02-04T13:22:37.769Z,3.13
2023-02-04T13:25:05.858Z,3.50
2023-02-04T13:27:32.830Z,3.10
2023-02-04T13:29:59.661Z,1.42
2023-02-04T13:32:26.485Z,0.95
2023-02-04T13:34:53.301Z,3.13
2023-02-04T13:37:20.172Z,4.72
2023-02-04T13:39:47.001Z,1.58
2023-02-04T13:42:13.801Z,2.00
2023-02-04T13:44:40.632Z,2.22
2023-02-04T13:47:07.553Z,1.02
2023-02-04T13:49:34.552Z,1.05
2023-02-04T13:52:01.394Z,5.28
2023-02-04T13:54:28.285Z,10.35
2023-02-04T13:56:55.141Z,0.88
2023-02-04T13:59:21.980Z,5.40
2023-02-04T14:01:48.890Z,0.77
2023-02-04T14:04:15.752Z,5.22
2023-02-04T14:06:45.392Z,0.85
2023-02-04T14:09:12.549Z,2.17
2023-02-04T14:11:40.120Z,5.28
2023-02-04T14:14:07.386Z,0.63
2023-02-04T14:16:35.766Z,5.28
2023-02-04T14:19:04.371Z,0.90
2023-02-04T14:21:31.549Z,1.60
2023-02-04T14:23:58.712Z,3.88
2023-02-04T14:26:25.608Z,4.30
2023-02-04T14:28:52.417Z,9.63
2023-02-04T14:31:19.553Z,2.67
2023-02-04T14:33:47.627Z,4.65
2023-02-04T14:36:16.309Z,1.60
2023-02-04T14:38:43.218Z,3.03
2023-02-04T14:41:11.453Z,2.28
2023-02-04T14:43:38.300Z,2.72
2023-02-04T14:46:05.752Z,3.60
2023-02-04T14:48:32.963Z,2.05
2023-02-04T14:50:59.984Z,4.90
2023-02-04T14:53:26.772Z,2.75
2023-02-04T14:55:53.645Z,4.85
2023-02-04T14:58:20.490Z,0.70
2023-02-04T15:00:47.764Z,13.73
2023-02-04T15:03:14.595Z,6.75
2023-02-04T15:05:41.489Z,3.15
2023-02-04T15:08:08.955Z,4.10
2023-02-04T15:10:36.076Z,3.10
2023-02-04T15:13:03.190Z,2.70
2023-02-04T15:15:30.088Z,2.53
2023-02-04T15:17:57.075Z,5.25
2023-02-04T15:20:25.166Z,3.92
2023-02-04T15:22:53.713Z,3.72
2023-02-04T15:25:20.567Z,1.88
2023-02-04T15:27:47.837Z,2.13
2023-02-04T15:30:15.354Z,3.60
2023-02-04T15:32:42.906Z,2.08
2023-02-04T15:35:10.421Z,3.03
2023-02-04T15:37:37.307Z,3.00
2023-02-04T15:40:05.121Z,3.15
2023-02-04T15:42:33.227Z,3.08
2023-02-04T15:45:00.156Z,1.02
2023-02-04T15:47:26.944Z,3.20
2023-02-04T15:49:53.800Z,7.78
2023-02-04T15:52:25.193Z,5.18
2023-02-04T15:54:52.703Z,0.63
2023-02-04T15:57:19.658Z,3.42
2023-02-04T15:59:47.125Z,1.33
2023-02-04T16:02:14.001Z,5.60
2023-02-04T16:04:41.612Z,1.50
2023-02-04T16:07:08.620Z,3.45
2023-02-04T16:09:35.972Z,2.45
2023-02-04T16:12:03.367Z,2.60
2023-02-04T16:14:30.324Z,2.78
2023-02-04T16:16:57.566Z,6.70
2023-02-04T16:19:24.594Z,8.23
2023-02-04T16:21:51.517Z,2.97
2023-02-04T16:24:18.955Z,2.70
2023-02-04T16:26:46.209Z,3.30
2023-02-04T16:29:13.188Z,4.70
2023-02-04T16:31:40.126Z,4.47
2023-02-04T16:34:07.053Z,3.15
2023-02-04T16:36:33.931Z,3.90
2023-02-04T16:39:02.849Z,5.07
2023-02-04T16:41:30.192Z,3.33
2023-02-04T16:43:57.605Z,4.45
2023-02-04T16:46:24.519Z,5.90
2023-02-04T16:48:51.879Z,8.52
2023-02-04T16:51:20.436Z,6.57
2023-02-04T16:53:47.517Z,11.57
2023-02-04T16:56:14.557Z,8.93
2023-02-04T16:58:41.420Z,10.85
2023-02-04T17:01:08.280Z,10.15
2023-02-04T17:04:00.485Z,9.20
2023-02-04T17:06:29.609Z,10.57
2023-02-04T17:08:56.848Z,6.90
2023-02-04T17:11:31.288Z,8.73
2023-02-04T17:14:10.726Z,14.25
2023-02-04T17:16:37.706Z,8.27
2023-02-04T17:19:05.561Z,6.95
2023-02-04T17:21:32.402Z,4.97
2023-02-04T17:24:04.215Z,5.43
2023-02-04T17:26:36.995Z,5.68
2023-02-04T17:29:09.620Z,4.85
2023-02-04T17:31:37.560Z,4.53
2023-02-04T17:34:05.193Z,6.80
2023-02-04T17:36:32.509Z,6.53
2023-02-04T17:38:59.634Z,2.35
2023-02-04T17:41:26.582Z,3.45
2023-02-04T17:43:53.847Z,4.43
2023-02-04T17:46:20.811Z,4.57
2023-02-04T17:48:47.752Z,2.20
2023-02-04T17:51:14.704Z,6.28
2023-02-04T17:53:41.884Z,7.05
2023-02-04T17:56:13.390Z,4.57
2023-02-04T17:58:40.924Z,3.97
2023-02-04T18:01:18.710Z,5.15
2023-02-04T18:03:48.456Z,7.38
2023-02-04T18:06:27.111Z,6.10
2023-02-04T18:09:01.353Z,8.50
2023-02-04T18:11:31.784Z,6.35
2023-02-04T18:14:12.091Z,5.63
2023-02-04T18:16:40.151Z,10.65
2023-02-04T18:19:16.846Z,8.43
2023-02-04T18:21:44.444Z,4.88
2023-02-04T18:24:18.575Z,4.45
2023-02-04T18:29:35.825Z,6.13
2023-02-04T18:32:10.653Z,6.40
2023-02-04T18:34:43.971Z,6.53
2023-02-04T18:37:29.566Z,4.93
2023-02-04T18:40:09.690Z,7.63
2023-02-04T18:42:41.663Z,5.53
2023-02-04T18:45:29.618Z,6.80
2023-02-04T18:48:02.293Z,7.05
2023-02-04T18:50:34.435Z,6.35
2023-02-04T18:53:07.803Z,5.13
2023-02-04T18:55:48.013Z,13.77
2023-02-04T18:58:34.053Z,7.35
2023-02-04T19:01:11.330Z,15.18
2023-02-04T19:04:06.030Z,17.25
2023-02-04T19:06:44.218Z,15.55
2023-02-04T19:09:14.736Z,14.38
2023-02-04T19:11:48.108Z,16.25
2023-02-04T19:14:21.408Z,11.33
2023-02-04T19:16:50.983Z,7.68
2023-02-04T19:19:35.369Z,7.75
2023-02-04T19:22:17.217Z,7.63
2023-02-04T19:24:44.486Z,5.25
2023-02-04T19:27:29.952Z,9.55
2023-02-04T19:29:59.790Z,9.90
2023-02-04T19:32:40.031Z,7.47
2023-02-04T19:35:21.584Z,6.22
2023-02-04T19:37:57.835Z,7.07
2023-02-04T19:40:24.758Z,8.48
2023-02-04T19:43:02.088Z,8.23
2023-02-04T19:45:29.321Z,7.70
2023-02-04T19:47:57.316Z,7.03
2023-02-04T19:50:32.128Z,6.97
2023-02-04T19:53:03.131Z,8.32
2023-02-04T19:55:47.647Z,5.43
2023-02-04T19:58:41.773Z,6.30
2023-02-04T20:01:19.581Z,4.32
2023-02-04T20:03:48.172Z,5.00
2023-02-04T20:06:33.443Z,11.93
2023-02-04T20:09:25.192Z,10.73
2023-02-04T20:12:06.134Z,10.45
2023-02-04T20:14:41.975Z,6.78
2023-02-04T20:17:35.939Z,6.25
2023-02-04T20:20:18.208Z,7.53
2023-02-04T23:37:56.022Z,6.75
2023-02-04T23:40:22.999Z,5.43
2023-02-04T23:42:50.300Z,9.13
2023-02-04T23:45:17.205Z,8.40
2023-02-04T23:47:44.134Z,10.48
2023-02-04T23:50:11.058Z,6.28
2023-02-04T23:52:37.937Z,5.35
2023-02-04T23:55:05.925Z,9.07
2023-02-04T23:57:32.726Z,7.20
2023-02-04T23:59:59.616Z,6.55
